createdAt,value
2018-12-05T00:02:16.106Z,12.30
2018-12-05T00:04:45.216Z,11.97
2018-12-05T00:07:14.338Z,11.43
2018-12-05T00:09:43.451Z,12.23
2018-12-05T00:12:12.594Z,11.60
2018-12-05T00:14:41.785Z,10.17
2018-12-05T00:17:10.917Z,12.07
2018-12-05T00:19:40.652Z,10.57
2018-12-05T00:22:09.801Z,10.63
2018-12-05T00:24:38.922Z,10.23
2018-12-05T00:27:08.041Z,11.53
2018-12-05T00:29:37.238Z,10.80
2018-12-05T00:32:06.530Z,11.37
2018-12-05T00:34:35.643Z,12.13
2018-12-05T00:37:04.776Z,10.90
2018-12-05T00:39:33.939Z,11.77
2018-12-05T00:42:03.081Z,11.00
2018-12-05T00:44:32.198Z,10.27
2018-12-05T00:47:01.379Z,11.33
2018-12-05T00:49:30.506Z,11.77
2018-12-05T00:52:00.173Z,14.40
2018-12-05T00:54:29.306Z,11.40
2018-12-05T00:56:58.569Z,11.10
2018-12-05T00:59:27.708Z,10.63
2018-12-05T01:01:56.837Z,10.53
2018-12-05T01:04:25.950Z,10.83
2018-12-05T01:06:55.116Z,12.27
2018-12-05T01:09:24.215Z,10.33
2018-12-05T01:11:53.396Z,10.20
2018-12-05T01:14:22.601Z,10.77
2018-12-05T01:16:51.850Z,10.33
2018-12-05T01:19:21.451Z,11.50
2018-12-05T01:21:50.602Z,11.93
2018-12-05T01:24:19.746Z,12.17
2018-12-05T01:26:48.869Z,11.20
2018-12-05T01:29:18.034Z,11.23
2018-12-05T01:31:47.289Z,11.03
2018-12-05T01:34:16.501Z,10.67
2018-12-05T01:36:45.654Z,10.00
2018-12-05T01:39:14.877Z,11.00
2018-12-05T01:41:44.015Z,10.23
2018-12-05T01:44:13.316Z,9.40
2018-12-05T01:46:42.884Z,8.73
2018-12-05T01:49:11.987Z,8.40
2018-12-05T01:51:41.237Z,8.83
2018-12-05T01:54:10.372Z,9.80
2018-12-05T01:56:39.510Z,10.40
2018-12-05T01:59:08.831Z,11.10
2018-12-05T02:01:37.976Z,9.37
2018-12-05T02:04:07.119Z,8.77
2018-12-05T02:06:36.356Z,9.00
2018-12-05T02:09:08.144Z,10.23
2018-12-05T02:11:37.451Z,9.23
2018-12-05T02:14:06.920Z,8.27
2018-12-05T02:16:36.069Z,9.20
2018-12-05T02:19:06.412Z,10.47
2018-12-05T02:21:35.523Z,10.20
2018-12-05T02:24:04.725Z,9.90
2018-12-05T02:26:33.825Z,8.77
2018-12-05T02:29:02.974Z,8.57
2018-12-05T02:31:32.115Z,7.60
2018-12-05T02:34:01.247Z,9.07
2018-12-05T02:36:30.711Z,10.77
2018-12-05T02:38:59.844Z,9.17
2018-12-05T02:41:28.968Z,8.37
2018-12-05T02:43:58.092Z,8.07
2018-12-05T02:46:27.270Z,7.97
2018-12-05T02:48:56.370Z,7.77
2018-12-05T02:51:25.477Z,7.37
2018-12-05T02:53:54.648Z,7.07
2018-12-05T02:56:23.741Z,6.80
2018-12-05T02:58:53.399Z,6.37
2018-12-05T03:01:22.605Z,7.00
2018-12-05T03:03:51.693Z,6.60
2018-12-05T03:06:20.796Z,8.40
2018-12-05T03:08:49.950Z,7.43
2018-12-05T03:11:19.081Z,7.80
2018-12-05T03:13:48.241Z,6.37
2018-12-05T03:16:17.345Z,7.77
2018-12-05T03:18:46.472Z,7.30
2018-12-05T03:21:15.683Z,8.43
2018-12-05T03:23:44.806Z,8.17
2018-12-05T03:26:15.047Z,9.03
2018-12-05T03:28:44.178Z,8.87
2018-12-05T03:31:13.352Z,9.17
2018-12-05T03:33:42.480Z,8.40
2018-12-05T03:36:11.657Z,8.33
2018-12-05T03:38:40.778Z,12.63
2018-12-05T03:41:09.919Z,11.17
2018-12-05T03:43:39.837Z,12.30
2018-12-05T03:46:09.053Z,11.00
2018-12-05T03:48:38.250Z,14.27
2018-12-05T03:51:07.433Z,13.87
2018-12-05T03:53:36.664Z,15.80
2018-12-05T03:56:05.993Z,14.23
2018-12-05T03:58:35.403Z,14.40
2018-12-05T04:01:04.941Z,16.60
2018-12-05T04:03:35.114Z,13.03
2018-12-05T04:06:04.299Z,12.10
2018-12-05T04:08:33.588Z,13.33
2018-12-05T04:11:03.821Z,10.77
2018-12-05T04:13:32.981Z,9.43
2018-12-05T04:16:02.131Z,10.80
2018-12-05T04:18:31.377Z,9.27
2018-12-05T04:21:00.506Z,9.47
2018-12-05T04:23:29.673Z,10.10
2018-12-05T04:25:59.239Z,9.30
2018-12-05T04:28:28.838Z,9.27
2018-12-05T04:30:58.050Z,12.13
2018-12-05T04:33:27.620Z,14.07
2018-12-05T04:35:56.749Z,12.80
2018-12-05T04:38:25.919Z,11.87
2018-12-05T04:40:55.403Z,11.90
2018-12-05T04:43:24.519Z,12.87
2018-12-05T04:45:53.745Z,12.90
2018-12-05T04:48:23.041Z,13.33
2018-12-05T04:50:52.813Z,13.60
2018-12-05T04:53:22.022Z,14.80
2018-12-05T04:55:51.148Z,19.70
2018-12-05T04:58:20.355Z,18.00
2018-12-05T05:00:49.453Z,14.60
2018-12-05T05:03:18.581Z,15.13
2018-12-05T05:05:47.737Z,14.90
2018-12-05T05:08:16.852Z,13.77
2018-12-05T05:10:45.956Z,11.73
2018-12-05T05:13:15.129Z,13.70
2018-12-05T05:15:44.265Z,12.87
2018-12-05T05:18:13.381Z,11.37
2018-12-05T05:20:43.269Z,11.50
2018-12-05T05:23:12.381Z,10.37
2018-12-05T05:25:41.498Z,13.17
2018-12-05T05:28:10.813Z,12.50
2018-12-05T05:30:39.896Z,11.23
2018-12-05T05:33:09.014Z,12.80
2018-12-05T05:35:38.173Z,12.20
2018-12-05T05:38:07.349Z,13.73
2018-12-05T05:40:36.476Z,13.80
2018-12-05T05:43:05.655Z,15.47
2018-12-05T05:45:34.829Z,16.40
2018-12-05T05:48:04.367Z,15.33
2018-12-05T05:50:33.462Z,15.50
2018-12-05T05:53:02.672Z,16.73
2018-12-05T05:55:31.780Z,18.93
2018-12-05T05:58:00.955Z,30.50
2018-12-05T06:00:30.115Z,15.60
2018-12-05T06:02:59.239Z,14.90
2018-12-05T06:05:28.425Z,15.03
2018-12-05T06:07:57.584Z,14.03
2018-12-05T06:10:26.722Z,13.47
2018-12-05T06:12:55.832Z,13.40
2018-12-05T06:15:25.033Z,13.73
2018-12-05T06:17:54.159Z,13.30
2018-12-05T06:20:23.267Z,13.53
2018-12-05T06:22:52.425Z,10.80
2018-12-05T06:25:21.607Z,10.50
2018-12-05T06:27:50.800Z,11.00
2018-12-05T06:30:20.875Z,11.60
2018-12-05T06:32:50.015Z,12.13
2018-12-05T06:35:19.873Z,12.93
2018-12-05T06:37:49.086Z,12.90
2018-12-05T06:40:18.361Z,13.00
2018-12-05T06:42:47.570Z,13.80
2018-12-05T06:45:16.692Z,13.23
2018-12-05T06:47:45.813Z,14.70
2018-12-05T06:50:15.013Z,16.03
2018-12-05T06:52:44.218Z,15.33
2018-12-05T06:55:13.408Z,15.17
2018-12-05T06:57:42.525Z,20.73
2018-12-05T07:00:11.870Z,20.33
2018-12-05T07:02:40.970Z,20.73
2018-12-05T07:05:10.113Z,19.80
2018-12-05T07:07:39.243Z,19.63
2018-12-05T07:10:08.394Z,19.53
2018-12-05T07:12:37.556Z,19.67
2018-12-05T07:15:07.453Z,19.47
2018-12-05T07:17:36.605Z,20.17
2018-12-05T07:20:07.915Z,21.50
2018-12-05T07:22:37.816Z,20.83
2018-12-05T07:25:07.338Z,19.80
2018-12-05T07:27:36.701Z,20.50
2018-12-05T07:30:06.532Z,19.80
2018-12-05T07:32:36.364Z,21.57
2018-12-05T07:35:06.162Z,20.00
2018-12-05T07:37:35.373Z,18.83
2018-12-05T07:40:04.797Z,18.57
2018-12-05T07:42:33.907Z,18.40
2018-12-05T07:45:03.700Z,21.03
2018-12-05T07:47:32.872Z,20.10
2018-12-05T07:50:02.004Z,19.27
2018-12-05T07:52:31.164Z,20.77
2018-12-05T07:55:00.350Z,19.90
2018-12-05T07:57:29.473Z,19.97
2018-12-05T07:59:58.715Z,23.40
2018-12-05T08:02:27.903Z,20.23
2018-12-05T08:04:57.945Z,20.10
2018-12-05T08:07:27.603Z,20.17
2018-12-05T08:09:56.793Z,17.20
2018-12-05T08:12:25.920Z,16.67
2018-12-05T08:14:55.034Z,15.80
2018-12-05T08:17:24.179Z,15.00
2018-12-05T08:19:53.354Z,15.07
2018-12-05T08:22:22.562Z,16.23
2018-12-05T08:24:51.766Z,14.70
2018-12-05T08:27:20.970Z,14.97
2018-12-05T08:29:50.122Z,14.67
2018-12-05T08:32:19.258Z,13.93
2018-12-05T08:34:48.408Z,15.07
2018-12-05T08:37:17.587Z,12.60
2018-12-05T08:39:46.791Z,13.90
2018-12-05T08:42:15.952Z,13.63
2018-12-05T08:44:45.539Z,13.17
2018-12-05T08:47:15.161Z,12.00
2018-12-05T08:49:44.296Z,13.63
2018-12-05T08:52:13.459Z,13.13
2018-12-05T08:54:42.655Z,12.33
2018-12-05T08:57:12.465Z,10.93
2018-12-05T08:59:42.031Z,11.03
2018-12-05T09:02:11.174Z,12.13
2018-12-05T09:04:40.347Z,9.97
2018-12-05T09:07:09.495Z,7.63
2018-12-05T09:09:38.607Z,9.50
2018-12-05T09:12:07.758Z,9.30
2018-12-05T09:14:36.901Z,11.33
2018-12-05T09:17:06.026Z,10.70
2018-12-05T09:19:35.159Z,9.37
2018-12-05T09:22:05.022Z,9.63
2018-12-05T09:24:34.205Z,9.80
2018-12-05T09:27:03.359Z,7.70
2018-12-05T09:29:33.145Z,7.73
2018-12-05T09:32:02.335Z,7.87
2018-12-05T09:34:31.494Z,40.43
2018-12-05T09:37:00.619Z,10.73
2018-12-05T09:39:29.774Z,12.67
2018-12-05T09:41:58.911Z,19.57
2018-12-05T09:44:28.037Z,7.43
2018-12-05T09:46:57.190Z,8.10
2018-12-05T09:49:26.493Z,9.30
2018-12-05T09:51:55.681Z,8.73
2018-12-05T09:54:25.390Z,11.13
2018-12-05T09:56:54.516Z,7.60
2018-12-05T09:59:23.717Z,7.30
2018-12-05T10:01:53.148Z,7.00
2018-12-05T10:04:22.301Z,8.17
2018-12-05T10:06:51.810Z,8.00
2018-12-05T10:09:20.929Z,9.20
2018-12-05T10:11:50.071Z,7.93
2018-12-05T10:14:19.258Z,8.20
2018-12-05T10:16:48.393Z,12.10
2018-12-05T10:19:17.532Z,10.80
2018-12-05T10:21:47.247Z,9.40
2018-12-05T10:24:16.994Z,8.00
2018-12-05T10:26:46.258Z,11.10
2018-12-05T10:29:15.395Z,8.33
2018-12-05T10:31:45.481Z,8.73
2018-12-05T10:34:16.251Z,11.10
2018-12-05T10:36:46.362Z,9.13
2018-12-05T10:39:15.570Z,9.80
2018-12-05T10:41:44.825Z,8.80
2018-12-05T10:44:13.968Z,8.00
2018-12-05T10:46:43.406Z,8.10
2018-12-05T10:49:12.628Z,7.97
2018-12-05T10:51:41.753Z,8.83
2018-12-05T10:54:11.447Z,9.37
2018-12-05T10:56:40.609Z,7.47
2018-12-05T10:59:09.887Z,9.30
2018-12-05T11:01:44.235Z,8.03
2018-12-05T11:04:23.352Z,15.83
2018-12-05T11:06:58.507Z,9.07
2018-12-05T11:09:32.719Z,8.83
2018-12-05T11:12:07.970Z,8.63
2018-12-05T11:14:42.270Z,8.57
2018-12-05T11:17:16.517Z,7.57
2018-12-05T11:19:51.162Z,7.60
2018-12-05T11:22:25.524Z,7.13
2018-12-05T11:24:58.816Z,8.87
2018-12-05T11:27:28.034Z,9.90
2018-12-05T11:29:57.561Z,9.60
2018-12-05T11:32:26.721Z,8.40
2018-12-05T11:34:56.562Z,9.33
2018-12-05T11:37:26.625Z,8.83
2018-12-05T11:39:55.790Z,10.13
2018-12-05T11:42:24.911Z,8.93
2018-12-05T11:44:54.985Z,8.40
2018-12-05T11:47:24.134Z,8.50
2018-12-05T11:49:54.140Z,21.67
2018-12-05T11:52:23.262Z,12.70
2018-12-05T11:54:52.418Z,11.57
2018-12-05T11:57:21.574Z,9.23
2018-12-05T11:59:50.689Z,9.80
2018-12-05T12:02:22.445Z,10.90
2018-12-05T12:04:51.991Z,13.70
2018-12-05T12:07:21.314Z,16.13
2018-12-05T12:09:50.513Z,11.10
2018-12-05T12:12:24.880Z,8.87
2018-12-05T12:14:55.264Z,8.03
2018-12-05T12:17:24.408Z,9.73
2018-12-05T12:19:53.574Z,13.10
2018-12-05T12:22:22.831Z,12.17
2018-12-05T12:24:52.039Z,13.07
2018-12-05T12:27:21.168Z,12.37
2018-12-05T12:29:50.721Z,10.80
2018-12-05T12:32:19.879Z,11.00
2018-12-05T12:34:50.011Z,10.97
2018-12-05T12:37:19.902Z,11.80
2018-12-05T12:39:49.526Z,11.90
2018-12-05T12:42:19.202Z,10.97
2018-12-05T12:44:48.330Z,10.87
2018-12-05T12:47:17.322Z,12.70
2018-12-05T12:49:46.261Z,9.87
2018-12-05T12:52:15.150Z,10.90
2018-12-05T12:54:44.120Z,12.57
2018-12-05T12:57:13.029Z,13.47
2018-12-05T12:59:41.915Z,18.97
2018-12-05T13:02:10.821Z,17.40
2018-12-05T13:04:39.711Z,14.87
2018-12-05T13:07:08.637Z,14.23
2018-12-05T13:09:37.558Z,16.43
2018-12-05T13:12:06.418Z,22.50
2018-12-05T13:14:35.281Z,21.73
2018-12-05T13:17:04.187Z,14.73
2018-12-05T13:19:33.041Z,12.00
2018-12-05T13:22:02.060Z,13.23
2018-12-05T13:24:30.931Z,12.30
2018-12-05T13:26:59.773Z,12.13
2018-12-05T13:29:28.623Z,11.10
2018-12-05T13:31:57.461Z,11.00
2018-12-05T13:34:27.089Z,10.80
2018-12-05T13:36:55.993Z,12.47
2018-12-05T13:39:24.849Z,11.67
2018-12-05T13:41:54.495Z,11.77
2018-12-05T13:44:23.392Z,15.53
2018-12-05T13:46:52.668Z,14.83
2018-12-05T13:49:21.556Z,14.23
2018-12-05T13:51:50.432Z,14.37
2018-12-05T13:54:19.422Z,14.13
2018-12-05T13:56:48.873Z,14.80
2018-12-05T13:59:17.733Z,20.57
2018-12-05T14:01:46.617Z,15.60
2018-12-05T14:04:15.533Z,15.33
2018-12-05T14:06:44.761Z,14.03
2018-12-05T14:09:14.139Z,14.13
2018-12-05T14:11:43.365Z,17.47
2018-12-05T14:14:12.225Z,17.93
2018-12-05T14:16:41.071Z,18.40
2018-12-05T14:19:09.978Z,17.30
2018-12-05T14:21:38.848Z,16.90
2018-12-05T14:24:07.779Z,19.33
2018-12-05T14:26:36.628Z,19.33
2018-12-05T14:29:05.522Z,17.93
2018-12-05T14:31:34.474Z,20.07
2018-12-05T14:34:03.369Z,20.27
2018-12-05T14:36:32.225Z,25.43
2018-12-05T14:39:01.150Z,33.97
2018-12-05T14:41:29.983Z,39.07
2018-12-05T14:43:58.984Z,30.80
2018-12-05T14:46:27.881Z,27.83
2018-12-05T14:48:56.763Z,29.57
2018-12-05T14:51:25.608Z,30.10
2018-12-05T14:53:54.487Z,28.57
2018-12-05T14:56:23.395Z,22.37
2018-12-05T14:58:52.584Z,27.27
2018-12-05T15:01:21.456Z,28.60
2018-12-05T15:03:50.450Z,33.70
2018-12-05T15:06:19.341Z,36.73
2018-12-05T15:08:48.234Z,36.80
2018-12-05T15:11:18.759Z,31.23
2018-12-05T15:13:47.761Z,28.60
2018-12-05T15:16:16.600Z,28.43
2018-12-05T15:18:45.565Z,35.47
2018-12-05T15:21:14.494Z,49.60
2018-12-05T15:23:43.366Z,40.90
2018-12-05T15:26:12.333Z,41.43
2018-12-05T15:28:41.181Z,41.77
2018-12-05T15:31:10.122Z,40.20
2018-12-05T15:33:40.297Z,51.60
2018-12-05T15:36:09.209Z,74.47
2018-12-05T15:38:38.056Z,53.57
2018-12-05T15:41:06.956Z,46.50
2018-12-05T15:43:35.878Z,34.30
2018-12-05T15:46:04.767Z,39.53
2018-12-05T15:48:33.672Z,34.53
2018-12-05T15:51:02.563Z,33.87
2018-12-05T15:53:31.494Z,39.43
2018-12-05T15:56:00.367Z,62.03
2018-12-05T15:58:29.325Z,73.67
2018-12-05T16:00:58.516Z,51.63
2018-12-05T16:03:27.401Z,48.73
2018-12-05T16:05:56.306Z,50.57
2018-12-05T16:08:25.210Z,52.37
2018-12-05T16:10:54.089Z,51.23
2018-12-05T16:13:22.953Z,55.13
2018-12-05T16:15:51.898Z,51.77
2018-12-05T16:18:20.744Z,52.90
2018-12-05T16:20:49.612Z,79.10
2018-12-05T16:23:18.665Z,98.97
2018-12-05T16:25:48.234Z,75.20
2018-12-05T16:28:17.214Z,81.93
2018-12-05T16:30:47.194Z,93.87
2018-12-05T16:33:16.106Z,89.03
2018-12-05T16:35:44.965Z,72.50
2018-12-05T16:38:13.848Z,65.67
2018-12-05T16:40:43.197Z,92.30
2018-12-05T16:43:12.145Z,100.27
2018-12-05T16:45:41.043Z,145.17
2018-12-05T16:48:09.990Z,143.30
2018-12-05T16:50:38.944Z,101.43
2018-12-05T16:53:07.906Z,70.77
2018-12-05T16:55:36.773Z,71.37
2018-12-05T16:58:05.704Z,78.00
2018-12-05T17:00:34.614Z,89.07
2018-12-05T17:03:03.487Z,93.27
2018-12-05T17:05:32.412Z,116.53
2018-12-05T17:08:01.289Z,110.50
2018-12-05T17:10:30.165Z,110.57
2018-12-05T17:12:59.068Z,102.67
2018-12-05T17:15:27.929Z,82.40
2018-12-05T17:17:56.800Z,76.30
2018-12-05T17:20:27.129Z,79.00
2018-12-05T17:22:55.987Z,77.63
2018-12-05T17:25:24.941Z,74.93
2018-12-05T17:27:53.828Z,95.53
2018-12-05T17:30:22.752Z,99.40
2018-12-05T17:32:51.639Z,114.30
2018-12-05T17:35:20.550Z,117.60
2018-12-05T17:37:49.453Z,128.50
2018-12-05T17:40:18.353Z,129.03
2018-12-05T17:42:47.330Z,120.97
2018-12-05T17:45:16.222Z,112.73
2018-12-05T17:47:45.138Z,104.63
2018-12-05T17:50:14.069Z,89.80
2018-12-05T17:52:42.960Z,92.97
2018-12-05T17:55:11.905Z,126.53
2018-12-05T17:57:40.957Z,105.40
2018-12-05T18:00:10.000Z,115.30
2018-12-05T18:02:38.876Z,123.03
2018-12-05T18:05:08.030Z,116.60
2018-12-05T18:07:36.933Z,106.53
2018-12-05T18:10:06.528Z,109.50
2018-12-05T18:12:35.488Z,99.53
2018-12-05T18:15:04.725Z,89.70
2018-12-05T18:17:33.643Z,82.70
2018-12-05T18:20:02.624Z,91.17
2018-12-05T18:22:31.575Z,95.50
2018-12-05T18:25:00.477Z,93.97
2018-12-05T18:27:29.456Z,93.93
2018-12-05T18:29:58.398Z,97.10
2018-12-05T18:32:27.304Z,104.77
2018-12-05T18:34:56.269Z,115.97
2018-12-05T18:37:25.263Z,118.93
2018-12-05T18:39:54.251Z,108.43
2018-12-05T18:42:23.147Z,95.03
2018-12-05T18:44:52.095Z,83.53
2018-12-05T18:47:21.522Z,91.60
2018-12-05T18:49:50.451Z,136.67
2018-12-05T18:52:19.343Z,156.80
2018-12-05T18:54:48.223Z,149.53
2018-12-05T18:57:17.145Z,144.93
2018-12-05T18:59:46.076Z,131.70
2018-12-05T19:02:15.353Z,117.90
2018-12-05T19:04:44.438Z,129.60
2018-12-05T19:07:13.484Z,134.50
2018-12-05T19:09:42.454Z,121.87
2018-12-05T19:12:11.413Z,112.70
2018-12-05T19:14:46.859Z,105.10
2018-12-05T19:17:15.769Z,98.20
2018-12-05T19:19:44.667Z,83.07
2018-12-05T19:22:13.749Z,76.70
2018-12-05T19:24:42.684Z,77.90
2018-12-05T19:27:11.596Z,82.17
2018-12-05T19:29:40.530Z,84.20
2018-12-05T19:32:09.691Z,79.30
2018-12-05T19:34:38.637Z,74.77
2018-12-05T19:37:07.604Z,74.20
2018-12-05T19:39:36.491Z,72.27
2018-12-05T19:42:05.418Z,69.03
2018-12-05T19:44:34.397Z,67.63
2018-12-05T19:47:03.326Z,70.60
2018-12-05T19:49:32.224Z,74.83
2018-12-05T19:52:01.202Z,77.50
2018-12-05T19:54:30.122Z,73.23
2018-12-05T19:56:59.288Z,72.47
2018-12-05T19:59:28.206Z,72.47
2018-12-05T20:01:57.147Z,70.73
2018-12-05T20:04:26.457Z,70.53
2018-12-05T20:06:55.638Z,68.73
2018-12-05T20:09:24.533Z,68.80
2018-12-05T20:11:54.368Z,71.20
2018-12-05T20:14:29.445Z,75.87
2018-12-05T20:16:59.174Z,74.93
2018-12-05T20:19:28.160Z,79.13
2018-12-05T20:21:57.061Z,75.53
2018-12-05T20:24:25.966Z,73.43
2018-12-05T20:26:55.110Z,69.13
2018-12-05T20:29:24.141Z,65.57
2018-12-05T20:31:53.049Z,69.43
2018-12-05T20:34:21.948Z,69.40
2018-12-05T20:36:50.864Z,72.13
2018-12-05T20:39:25.895Z,70.63
2018-12-05T20:41:57.428Z,72.73
2018-12-05T20:44:26.300Z,71.10
2018-12-05T20:46:55.252Z,68.37
2018-12-05T20:49:24.166Z,68.53
2018-12-05T20:51:53.055Z,59.60
2018-12-05T20:54:21.985Z,56.73
2018-12-05T20:56:50.857Z,57.87
2018-12-05T20:59:19.720Z,55.07
2018-12-05T21:01:48.813Z,52.47
2018-12-05T21:04:17.708Z,55.63
2018-12-05T21:06:46.640Z,52.87
2018-12-05T21:09:15.600Z,57.53
2018-12-05T21:11:44.512Z,58.97
2018-12-05T21:14:13.420Z,57.33
2018-12-05T21:16:42.845Z,57.30
2018-12-05T21:19:12.793Z,61.77
2018-12-05T21:21:41.944Z,57.47
2018-12-05T21:24:11.406Z,55.70
2018-12-05T21:26:40.403Z,56.43
2018-12-05T21:29:09.337Z,55.53
2018-12-05T21:31:38.281Z,59.07
2018-12-05T21:34:07.165Z,61.20
2018-12-05T21:36:36.163Z,60.47
2018-12-05T21:39:08.974Z,59.37
2018-12-05T21:41:38.649Z,63.07
2018-12-05T21:44:07.572Z,59.50
2018-12-05T21:46:36.541Z,59.50
2018-12-05T21:49:05.488Z,55.57
2018-12-05T21:51:34.519Z,51.20
2018-12-05T21:54:04.027Z,50.23
2018-12-05T21:56:32.983Z,52.23
2018-12-05T21:59:01.926Z,52.37
2018-12-05T22:01:30.816Z,49.97
2018-12-05T22:03:59.742Z,47.30
2018-12-05T22:06:28.627Z,43.93
2018-12-05T22:08:57.635Z,46.17
2018-12-05T22:11:26.559Z,47.07
2018-12-05T22:13:55.432Z,47.47
2018-12-05T22:16:24.330Z,47.83
2018-12-05T22:18:53.348Z,44.00
2018-12-05T22:21:22.229Z,44.33
2018-12-05T22:23:51.130Z,42.17
2018-12-05T22:26:20.154Z,45.30
2018-12-05T22:28:49.051Z,52.47
2018-12-05T22:31:17.960Z,51.80
2018-12-05T22:33:47.708Z,47.13
2018-12-05T22:36:16.606Z,51.37
2018-12-05T22:38:45.517Z,53.37
2018-12-05T22:41:14.386Z,55.33
2018-12-05T22:43:43.319Z,58.73
2018-12-05T22:46:12.187Z,70.00
2018-12-05T22:48:41.069Z,60.63
2018-12-05T22:51:10.048Z,63.20
2018-12-05T22:53:39.755Z,60.80
2018-12-05T22:56:08.645Z,57.00
2018-12-05T22:58:37.655Z,57.77
2018-12-05T23:01:06.687Z,59.43
2018-12-05T23:03:35.588Z,57.47
2018-12-05T23:06:04.530Z,57.23
2018-12-05T23:08:33.408Z,58.00
2018-12-05T23:11:02.325Z,58.00
2018-12-05T23:13:31.225Z,57.77
2018-12-05T23:16:00.538Z,59.23
2018-12-05T23:18:29.448Z,61.93
2018-12-05T23:20:58.343Z,59.87
2018-12-05T23:23:27.242Z,59.27
2018-12-05T23:25:56.215Z,56.37
2018-12-05T23:28:25.249Z,53.50
2018-12-05T23:30:54.196Z,57.20
2018-12-05T23:33:23.105Z,60.83
2018-12-05T23:35:51.997Z,56.67
2018-12-05T23:38:20.883Z,57.80
2018-12-05T23:40:49.813Z,58.33
2018-12-05T23:43:18.666Z,58.20
2018-12-05T23:45:47.540Z,59.83
2018-12-05T23:48:16.401Z,55.50
2018-12-05T23:50:45.316Z,62.03
2018-12-05T23:53:14.168Z,57.63
2018-12-05T23:55:43.197Z,55.50
2018-12-05T23:58:12.133Z,57.50
